Time;durP1;ratioP1;P1;durP2;ratioP2;P2;SDS_P1;SDS_P2;PMS_P1;PMS_P2;Temp;Humidity;BMP_temperature;BMP_pressure;BME280_temperature;BME280_humidity;BME280_pressure;Samples;Min_cycle;Max_cycle;Signal;HPM_P1;HPM_P2
2021/06/10 00:01:39;;;;;;;5.47;4.35;;;;;;;;;;5072330;28;20016;-68
2021/06/10 00:04:04;;;;;;;9.50;5.57;;;;;;;;;;5071883;28;20029;-67
2021/06/10 00:06:30;;;;;;;6.30;4.40;;;;;;;;;;5072324;28;20032;-68
2021/06/10 00:08:55;;;;;;;6.45;4.53;;;;;;;;;;5072467;28;20111;-67
2021/06/10 00:11:21;;;;;;;7.28;4.78;;;;;;;;;;5071788;28;20023;-67
2021/06/10 00:13:46;;;;;;;6.95;4.70;;;;;;;;;;5071874;28;20021;-67
2021/06/10 00:16:12;;;;;;;6.38;4.50;;;;;;;;;;5072013;28;20115;-68
2021/06/10 00:18:38;;;;;;;11.82;5.10;;;;;;;;;;5072224;28;20059;-68
2021/06/10 00:21:03;;;;;;;5.15;4.45;;;;;;;;;;5054241;28;20027;-68
2021/06/10 00:23:29;;;;;;;7.60;5.15;;;;;;;;;;5054207;28;20017;-68
2021/06/10 00:25:54;;;;;;;5.95;4.75;;;;;;;;;;5071983;28;20028;-68
2021/06/10 00:28:19;;;;;;;6.07;4.47;;;;;;;;;;5071719;28;20469;-68
2021/06/10 00:30:45;;;;;;;8.98;4.85;;;;;;;;;;5072008;28;20028;-68
2021/06/10 00:33:11;;;;;;;8.73;5.30;;;;;;;;;;5071910;28;20008;-67
2021/06/10 00:35:37;;;;;;;8.82;4.72;;;;;;;;;;5072087;28;20389;-67
2021/06/10 00:38:03;;;;;;;11.23;4.78;;;;;;;;;;5071763;28;20021;-68
2021/06/10 00:40:29;;;;;;;6.10;4.85;;;;;;;;;;5072120;28;20013;-67
2021/06/10 00:42:55;;;;;;;6.30;4.15;;;;;;;;;;5071290;28;20485;-67
2021/06/10 00:45:22;;;;;;;7.82;4.10;;;;;;;;;;5053915;28;20028;-68
2021/06/10 00:47:48;;;;;;;5.78;4.30;;;;;;;;;;5072078;28;20016;-68
2021/06/10 00:50:14;;;;;;;7.70;4.80;;;;;;;;;;5075177;28;20020;-68
2021/06/10 00:52:40;;;;;;;10.13;4.57;;;;;;;;;;5075618;28;20020;-68
2021/06/10 00:55:09;;;;;;;7.72;4.70;;;;;;;;;;5057522;28;20560;-67
2021/06/10 00:57:34;;;;;;;8.68;6.18;;;;;;;;;;5075390;28;20016;-67
2021/06/10 01:00:00;;;;;;;7.32;4.63;;;;;;;;;;5074840;28;20070;-68
2021/06/10 01:02:26;;;;;;;11.57;5.53;;;;;;;;;;5075397;28;20502;-68
2021/06/10 01:04:51;;;;;;;7.75;5.28;;;;;;;;;;5075434;28;20027;-68
2021/06/10 01:07:24;;;;;;;6.20;4.85;;;;;;;;;;5075129;28;20028;-67
2021/06/10 01:10:08;;;;;;;7.22;5.15;;;;;;;;;;5075114;28;20044;-67
2021/06/10 01:12:40;;;;;;;7.10;5.18;;;;;;;;;;5074435;28;20028;-68
2021/06/10 01:15:08;;;;;;;6.15;5.35;;;;;;;;;;5074993;28;20431;-67
2021/06/10 01:17:42;;;;;;;9.35;5.53;;;;;;;;;;5057305;28;20062;-68
2021/06/10 01:20:12;;;;;;;12.55;5.50;;;;;;;;;;5074820;28;20016;-68
2021/06/10 01:22:57;;;;;;;8.45;5.63;;;;;;;;;;5075103;28;20103;-68
2021/06/10 01:25:32;;;;;;;11.80;6.25;;;;;;;;;;5074981;28;20385;-68
2021/06/10 01:27:59;;;;;;;10.13;5.38;;;;;;;;;;5074551;28;20024;-67
2021/06/10 01:30:26;;;;;;;8.57;5.97;;;;;;;;;;5056933;28;20020;-68
2021/06/10 01:32:54;;;;;;;9.88;5.53;;;;;;;;;;5074905;28;20028;-68
2021/06/10 01:35:21;;;;;;;7.88;5.22;;;;;;;;;;5074550;28;20008;-67
2021/06/10 01:37:47;;;;;;;7.35;5.78;;;;;;;;;;5074583;28;20024;-67
2021/06/10 01:40:13;;;;;;;6.82;5.60;;;;;;;;;;5074542;28;20021;-68
2021/06/10 01:42:40;;;;;;;12.95;6.18;;;;;;;;;;5074047;28;20104;-68
2021/06/10 01:45:06;;;;;;;8.20;6.20;;;;;;;;;;5074419;28;20026;-68
2021/06/10 01:47:32;;;;;;;9.68;6.25;;;;;;;;;;5074585;28;20019;-68
2021/06/10 01:50:00;;;;;;;9.23;5.70;;;;;;;;;;5074043;28;20021;-68
2021/06/10 01:52:26;;;;;;;10.02;6.18;;;;;;;;;;5074369;28;20016;-68
2021/06/10 01:54:53;;;;;;;7.43;6.35;;;;;;;;;;5074374;28;20503;-67
2021/06/10 01:57:19;;;;;;;11.20;5.70;;;;;;;;;;5074094;28;20021;-68
2021/06/10 01:59:45;;;;;;;10.15;6.35;;;;;;;;;;5073944;28;20014;-67
2021/06/10 02:02:11;;;;;;;9.00;5.93;;;;;;;;;;5073906;28;20098;-68
2021/06/10 02:04:36;;;;;;;8.20;6.20;;;;;;;;;;5073908;28;20024;-68
2021/06/10 02:07:03;;;;;;;8.00;6.47;;;;;;;;;;5056188;28;20122;-67
2021/06/10 02:09:28;;;;;;;6.18;5.57;;;;;;;;;;5074038;28;20028;-68
2021/06/10 02:11:54;;;;;;;6.28;5.05;;;;;;;;;;5073150;28;20025;-67
2021/06/10 02:14:20;;;;;;;8.57;5.63;;;;;;;;;;5073889;28;20087;-68
2021/06/10 02:16:46;;;;;;;8.40;5.45;;;;;;;;;;5039347;28;20044;-68
2021/06/10 02:19:12;;;;;;;9.63;5.50;;;;;;;;;;5073578;28;20056;-68
2021/06/10 02:21:38;;;;;;;7.35;5.88;;;;;;;;;;5073946;28;20487;-68
2021/06/10 02:24:03;;;;;;;10.55;5.97;;;;;;;;;;5076564;28;20019;-67
2021/06/10 02:26:29;;;;;;;11.13;5.85;;;;;;;;;;5099780;28;20055;-67
2021/06/10 02:28:54;;;;;;;9.25;6.05;;;;;;;;;;5099692;28;20012;-67
2021/06/10 02:31:20;;;;;;;7.15;5.07;;;;;;;;;;5096953;28;20036;-68
2021/06/10 02:33:45;;;;;;;7.22;5.53;;;;;;;;;;5079499;28;20036;-68
2021/06/10 02:36:13;;;;;;;6.90;5.93;;;;;;;;;;5079538;28;20024;-68
2021/06/10 02:38:42;;;;;;;6.40;5.60;;;;;;;;;;5073640;28;20027;-68
2021/06/10 02:41:10;;;;;;;6.85;5.53;;;;;;;;;;5073225;28;20096;-68
2021/06/10 02:43:36;;;;;;;10.13;5.72;;;;;;;;;;5072798;28;20388;-68
2021/06/10 02:46:02;;;;;;;7.63;5.63;;;;;;;;;;5073077;28;20024;-67
2021/06/10 02:48:29;;;;;;;7.90;5.97;;;;;;;;;;5055270;28;20016;-68
2021/06/10 02:50:59;;;;;;;7.90;6.47;;;;;;;;;;5066860;28;20025;-69
2021/06/10 02:53:27;;;;;;;13.82;6.82;;;;;;;;;;5059370;28;20396;-68
2021/06/10 02:55:55;;;;;;;10.93;6.07;;;;;;;;;;5084135;28;20052;-65
2021/06/10 02:58:24;;;;;;;9.10;5.90;;;;;;;;;;5079951;28;20000;-67
2021/06/10 03:00:51;;;;;;;;;;;;;;;;;;5097221;28;20065;-66
2021/06/10 03:03:20;;;;;;;7.22;6.15;;;;;;;;;;5096450;28;19903;-67
2021/06/10 03:05:48;;;;;;;;;;;;;;;;;;5097346;28;19997;-67
2021/06/10 03:08:18;;;;;;;12.27;6.72;;;;;;;;;;5097097;28;19905;-67
2021/06/10 03:10:45;;;;;;;8.75;5.80;;;;;;;;;;5072119;28;20047;-67
2021/06/10 03:13:11;;;;;;;8.23;6.13;;;;;;;;;;5072180;28;20020;-67
2021/06/10 03:15:37;;;;;;;7.38;5.70;;;;;;;;;;5054819;28;20020;-67
2021/06/10 03:18:06;;;;;;;7.63;6.80;;;;;;;;;;5088377;28;20025;-67
2021/06/10 03:20:33;;;;;;;;;;;;;;;;;;5097091;28;20020;-67
2021/06/10 03:23:02;;;;;;;11.05;7.50;;;;;;;;;;5078558;28;19904;-67
2021/06/10 03:25:32;;;;;;;10.00;7.63;;;;;;;;;;5095839;28;20023;-68
2021/06/10 03:28:03;;;;;;;12.52;7.03;;;;;;;;;;5095590;28;20016;-67
2021/06/10 03:30:33;;;;;;;17.75;6.78;;;;;;;;;;5096377;28;20016;-68
2021/06/10 03:33:08;;;;;;;11.35;7.72;;;;;;;;;;5096162;28;20021;-68
2021/06/10 03:35:35;;;;;;;9.93;6.15;;;;;;;;;;5080722;28;20023;-68
2021/06/10 03:38:02;;;;;;;16.17;7.10;;;;;;;;;;5072555;28;20013;-67
2021/06/10 03:40:27;;;;;;;13.43;6.57;;;;;;;;;;5072673;28;20016;-68
2021/06/10 03:42:56;;;;;;;14.18;6.80;;;;;;;;;;5086831;28;20048;-67
2021/06/10 03:45:27;;;;;;;10.70;6.90;;;;;;;;;;5079188;28;20081;-68
2021/06/10 03:47:56;;;;;;;10.10;6.47;;;;;;;;;;5078236;28;20005;-68
2021/06/10 03:50:31;;;;;;;7.97;7.13;;;;;;;;;;5079470;28;20032;-68
2021/06/10 03:53:02;;;;;;;8.82;6.50;;;;;;;;;;5078701;28;20047;-66
2021/06/10 03:55:32;;;;;;;8.27;6.43;;;;;;;;;;5078328;28;20029;-68
2021/06/10 03:57:58;;;;;;;;;;;;;;;;;;5091878;28;20012;-68
2021/06/10 04:00:24;;;;;;;11.77;5.93;;;;;;;;;;5072474;28;19927;-69
2021/06/10 04:02:50;;;;;;;6.68;5.13;;;;;;;;;;5072431;28;20128;-68
2021/06/10 04:05:15;;;;;;;7.53;4.78;;;;;;;;;;5072158;28;20508;-69
2021/06/10 04:07:44;;;;;;;11.73;5.45;;;;;;;;;;5089332;28;20009;-67
2021/06/10 04:10:11;;;;;;;;;;;;;;;;;;5096048;28;20065;-68
2021/06/10 04:12:40;;;;;;;8.90;5.13;;;;;;;;;;5095523;28;19912;-68
2021/06/10 04:15:07;;;;;;;6.45;5.00;;;;;;;;;;5092325;28;20012;-68
2021/06/10 04:17:32;;;;;;;10.95;5.18;;;;;;;;;;5072465;28;20029;-68
2021/06/10 04:19:58;;;;;;;5.80;4.82;;;;;;;;;;5071846;28;20021;-68
2021/06/10 04:22:23;;;;;;;10.35;5.50;;;;;;;;;;5072229;28;20017;-68
2021/06/10 04:24:48;;;;;;;8.32;5.28;;;;;;;;;;5075638;28;20042;-68
2021/06/10 04:27:14;;;;;;;9.65;5.00;;;;;;;;;;5075798;28;20021;-68
2021/06/10 04:29:39;;;;;;;11.05;4.85;;;;;;;;;;5075903;28;20422;-68
2021/06/10 04:32:05;;;;;;;7.90;4.53;;;;;;;;;;5075445;28;20048;-68
2021/06/10 04:34:31;;;;;;;6.75;4.10;;;;;;;;;;5075893;28;20487;-68
2021/06/10 04:36:57;;;;;;;8.32;4.22;;;;;;;;;;5075801;28;20017;-67
2021/06/10 04:39:25;;;;;;;8.90;4.70;;;;;;;;;;5075760;28;20169;-68
2021/06/10 04:41:50;;;;;;;5.13;3.70;;;;;;;;;;5074718;28;20385;-67
2021/06/10 04:44:16;;;;;;;12.82;4.20;;;;;;;;;;5075415;28;20017;-68
2021/06/10 04:46:41;;;;;;;10.00;4.13;;;;;;;;;;5057654;28;20025;-68
2021/06/10 04:49:08;;;;;;;7.43;3.67;;;;;;;;;;5075360;28;20021;-68
2021/06/10 04:51:34;;;;;;;9.80;4.30;;;;;;;;;;5057700;28;20507;-68
2021/06/10 04:54:00;;;;;;;11.60;4.95;;;;;;;;;;5074884;28;20116;-68
2021/06/10 04:56:25;;;;;;;9.35;4.45;;;;;;;;;;5075324;28;20094;-68
2021/06/10 04:58:50;;;;;;;9.98;4.32;;;;;;;;;;5075423;28;20127;-68
2021/06/10 05:01:17;;;;;;;10.27;4.78;;;;;;;;;;5075184;28;20025;-68
2021/06/10 05:03:42;;;;;;;10.50;5.55;;;;;;;;;;5057107;28;20067;-68
2021/06/10 05:06:08;;;;;;;8.30;4.80;;;;;;;;;;5057248;28;20012;-68
2021/06/10 05:08:34;;;;;;;6.88;5.07;;;;;;;;;;5074665;28;20021;-67
2021/06/10 05:11:00;;;;;;;8.18;5.20;;;;;;;;;;5075057;28;20103;-67
2021/06/10 05:13:25;;;;;;;8.27;4.75;;;;;;;;;;5056328;28;20465;-68
2021/06/10 05:15:51;;;;;;;8.32;5.03;;;;;;;;;;5074803;28;20024;-68
2021/06/10 05:18:17;;;;;;;6.63;5.20;;;;;;;;;;5074702;28;20493;-68
2021/06/10 05:20:43;;;;;;;6.03;4.47;;;;;;;;;;5075004;28;20158;-68
2021/06/10 05:23:08;;;;;;;5.18;4.35;;;;;;;;;;5074776;28;20012;-68
2021/06/10 05:25:33;;;;;;;4.50;3.13;;;;;;;;;;5074753;28;20021;-68
2021/06/10 05:27:59;;;;;;;4.88;3.33;;;;;;;;;;5056572;28;20054;-68
2021/06/10 05:30:24;;;;;;;4.47;2.70;;;;;;;;;;5074712;28;20033;-68
2021/06/10 05:32:50;;;;;;;3.20;2.90;;;;;;;;;;5056769;28;20017;-68
2021/06/10 05:35:16;;;;;;;5.50;2.92;;;;;;;;;;5073893;28;20024;-68
2021/06/10 05:37:41;;;;;;;4.10;2.90;;;;;;;;;;5074654;28;20108;-68
2021/06/10 05:40:07;;;;;;;3.78;2.40;;;;;;;;;;5074227;28;20048;-68
2021/06/10 05:42:32;;;;;;;5.28;3.15;;;;;;;;;;5073940;28;20035;-68
2021/06/10 05:44:58;;;;;;;2.42;2.22;;;;;;;;;;5074405;28;20103;-68
2021/06/10 05:47:23;;;;;;;4.75;2.40;;;;;;;;;;5075139;28;20127;-70
2021/06/10 05:49:49;;;;;;;3.30;2.80;;;;;;;;;;5073793;28;20032;-69
2021/06/10 05:52:14;;;;;;;3.03;2.53;;;;;;;;;;5066107;28;20037;-70
2021/06/10 05:54:40;;;;;;;3.30;2.95;;;;;;;;;;5056215;28;20051;-70
2021/06/10 05:57:10;;;;;;;3.42;2.50;;;;;;;;;;5073896;28;20021;-69
2021/06/10 05:59:35;;;;;;;3.47;2.65;;;;;;;;;;5073580;28;20052;-69
2021/06/10 06:02:00;;;;;;;3.30;2.97;;;;;;;;;;5063160;28;20051;-68
2021/06/10 06:04:26;;;;;;;3.33;2.53;;;;;;;;;;5073829;28;20041;-70
2021/06/10 06:06:51;;;;;;;3.70;2.53;;;;;;;;;;5072550;28;20029;-70
2021/06/10 06:09:17;;;;;;;5.32;3.20;;;;;;;;;;5052200;28;20037;-69
2021/06/10 06:11:42;;;;;;;3.13;2.83;;;;;;;;;;5043411;28;20017;-71
2021/06/10 06:14:08;;;;;;;3.78;3.30;;;;;;;;;;5047081;28;20025;-70
2021/06/10 06:16:39;;;;;;;7.13;4.30;;;;;;;;;;5049357;28;20020;-68
2021/06/10 06:19:05;;;;;;;6.00;3.70;;;;;;;;;;5043611;28;20025;-68
2021/06/10 06:21:32;;;;;;;5.75;4.05;;;;;;;;;;5038734;28;20104;-68
2021/06/10 06:23:58;;;;;;;6.28;4.47;;;;;;;;;;5042553;28;20025;-70
2021/06/10 06:26:23;;;;;;;4.70;3.90;;;;;;;;;;5052527;28;20017;-67
2021/06/10 06:28:49;;;;;;;6.65;4.60;;;;;;;;;;5053321;28;20066;-67
2021/06/10 06:31:14;;;;;;;6.43;3.80;;;;;;;;;;5068830;28;20342;-68
2021/06/10 06:33:40;;;;;;;5.60;4.15;;;;;;;;;;5052210;28;20105;-67
2021/06/10 06:36:05;;;;;;;7.88;4.25;;;;;;;;;;5053055;28;20446;-67
2021/06/10 06:38:31;;;;;;;6.60;3.95;;;;;;;;;;5052273;28;20075;-67
2021/06/10 06:40:57;;;;;;;5.25;3.78;;;;;;;;;;5047382;28;20096;-67
2021/06/10 06:43:25;;;;;;;8.63;4.00;;;;;;;;;;5048906;28;20040;-67
2021/06/10 06:45:50;;;;;;;5.97;3.63;;;;;;;;;;5043477;28;20473;-67
2021/06/10 06:48:15;;;;;;;5.82;4.50;;;;;;;;;;5052893;28;20059;-67
2021/06/10 06:50:41;;;;;;;4.43;4.03;;;;;;;;;;5051597;28;20037;-67
2021/06/10 06:53:06;;;;;;;7.72;4.60;;;;;;;;;;5052492;28;20100;-67
2021/06/10 06:55:32;;;;;;;4.95;4.22;;;;;;;;;;5040238;28;20024;-67
2021/06/10 06:57:57;;;;;;;7.32;4.80;;;;;;;;;;5053940;28;20013;-66
2021/06/10 07:00:23;;;;;;;13.15;5.35;;;;;;;;;;5052454;28;20017;-66
2021/06/10 07:02:49;;;;;;;8.82;4.75;;;;;;;;;;5024803;28;20502;-65
2021/06/10 07:05:14;;;;;;;8.00;5.20;;;;;;;;;;5048630;28;20028;-66
2021/06/10 07:07:40;;;;;;;8.38;5.25;;;;;;;;;;5051856;28;20031;-67
2021/06/10 07:10:05;;;;;;;6.10;4.93;;;;;;;;;;5053111;28;20051;-66
2021/06/10 07:12:30;;;;;;;5.95;4.60;;;;;;;;;;5051379;28;20021;-66
2021/06/10 07:14:56;;;;;;;10.05;4.85;;;;;;;;;;5035233;28;20107;-66
2021/06/10 07:17:22;;;;;;;4.75;4.28;;;;;;;;;;5043143;28;20108;-66
2021/06/10 07:19:54;;;;;;;7.25;4.70;;;;;;;;;;5048029;28;20373;-66
2021/06/10 07:22:19;;;;;;;7.88;4.65;;;;;;;;;;5041430;28;20029;-66
2021/06/10 07:24:46;;;;;;;7.63;4.35;;;;;;;;;;5031445;28;20018;-66
2021/06/10 07:27:13;;;;;;;6.07;4.60;;;;;;;;;;5045671;28;20033;-66
2021/06/10 07:29:38;;;;;;;5.88;4.85;;;;;;;;;;5046722;28;20021;-66
2021/06/10 07:32:04;;;;;;;11.35;4.95;;;;;;;;;;5052295;28;20453;-67
2021/06/10 07:34:30;;;;;;;10.20;5.32;;;;;;;;;;5051377;28;20062;-67
2021/06/10 07:36:56;;;;;;;6.18;5.32;;;;;;;;;;5024559;28;20530;-69
2021/06/10 07:39:21;;;;;;;10.90;4.75;;;;;;;;;;5039367;28;20170;-68
2021/06/10 07:41:46;;;;;;;16.75;5.43;;;;;;;;;;5041521;28;20470;-68
2021/06/10 07:44:12;;;;;;;6.88;5.05;;;;;;;;;;5041499;28;20029;-68
2021/06/10 07:46:37;;;;;;;7.70;5.38;;;;;;;;;;5036656;28;20021;-68
2021/06/10 07:49:12;;;;;;;5.68;4.75;;;;;;;;;;5039908;28;20029;-68
2021/06/10 07:51:38;;;;;;;6.00;5.30;;;;;;;;;;5049348;28;20051;-69
2021/06/10 07:54:04;;;;;;;6.65;5.20;;;;;;;;;;5044875;28;20374;-69
2021/06/10 07:56:32;;;;;;;8.40;5.07;;;;;;;;;;5042256;28;20017;-69
2021/06/10 07:58:58;;;;;;;6.60;5.10;;;;;;;;;;5050188;28;20057;-68
2021/06/10 08:01:23;;;;;;;12.52;5.85;;;;;;;;;;5041821;28;20045;-69
2021/06/10 08:03:49;;;;;;;7.80;5.45;;;;;;;;;;5020518;28;20049;-72
2021/06/10 08:06:14;;;;;;;6.50;5.32;;;;;;;;;;5054213;28;20111;-71
2021/06/10 08:08:40;;;;;;;6.97;5.18;;;;;;;;;;5046424;28;20116;-70
2021/06/10 08:11:10;;;;;;;9.00;5.82;;;;;;;;;;5028911;28;20482;-70
2021/06/10 08:13:35;;;;;;;7.22;5.03;;;;;;;;;;5032559;28;20146;-70
2021/06/10 08:16:01;;;;;;;11.05;5.60;;;;;;;;;;5053529;28;20111;-69
2021/06/10 08:18:28;;;;;;;8.35;5.80;;;;;;;;;;5056397;28;20039;-73
2021/06/10 08:20:54;;;;;;;8.02;5.47;;;;;;;;;;5037348;28;20036;-70
2021/06/10 08:23:19;;;;;;;11.90;6.50;;;;;;;;;;5036831;28;20028;-70
2021/06/10 08:25:45;;;;;;;33.60;8.18;;;;;;;;;;5055562;28;20032;-69
2021/06/10 08:28:11;;;;;;;9.85;6.13;;;;;;;;;;5061631;28;20013;-69
2021/06/10 08:30:37;;;;;;;7.82;5.80;;;;;;;;;;5054758;28;20027;-68
2021/06/10 08:33:02;;;;;;;8.63;5.40;;;;;;;;;;5047182;28;20021;-68
2021/06/10 08:35:28;;;;;;;8.38;5.93;;;;;;;;;;5051121;28;20067;-68
2021/06/10 08:38:00;;;;;;;7.68;6.00;;;;;;;;;;5054528;28;20532;-68
2021/06/10 08:40:27;;;;;;;8.77;6.47;;;;;;;;;;5036786;28;20020;-67
2021/06/10 08:42:53;;;;;;;10.63;6.32;;;;;;;;;;5033908;28;20032;-68
2021/06/10 08:45:19;;;;;;;15.07;7.05;;;;;;;;;;5016476;28;20013;-68
2021/06/10 08:47:48;;;;;;;10.48;6.32;;;;;;;;;;5022608;28;20029;-69
2021/06/10 08:50:17;;;;;;;7.38;5.47;;;;;;;;;;5056213;28;20107;-68
2021/06/10 08:52:43;;;;;;;7.72;6.00;;;;;;;;;;5054068;28;20473;-67
2021/06/10 08:55:11;;;;;;;7.85;5.78;;;;;;;;;;5043175;28;20117;-67
2021/06/10 08:57:37;;;;;;;10.63;5.57;;;;;;;;;;5052891;28;20507;-67
2021/06/10 09:00:03;;;;;;;8.85;6.32;;;;;;;;;;5053850;28;20124;-68
2021/06/10 09:02:29;;;;;;;8.48;6.20;;;;;;;;;;5034001;28;20072;-67
2021/06/10 09:05:16;;;;;;;6.65;5.43;;;;;;;;;;5033789;28;20060;-67
2021/06/10 09:07:46;;;;;;;6.35;5.70;;;;;;;;;;5041317;28;20028;-67
2021/06/10 09:10:11;;;;;;;6.38;5.25;;;;;;;;;;5047490;28;20037;-68
2021/06/10 09:12:56;;;;;;;8.55;5.20;;;;;;;;;;5045624;28;20021;-67
2021/06/10 09:15:23;;;;;;;10.27;5.63;;;;;;;;;;5049537;28;20021;-70
2021/06/10 09:17:48;;;;;;;15.80;5.47;;;;;;;;;;5050150;28;20025;-71
2021/06/10 09:20:27;;;;;;;6.25;5.18;;;;;;;;;;5033284;28;20063;-71
2021/06/10 09:23:07;;;;;;;8.23;6.05;;;;;;;;;;5042797;28;20028;-71
2021/06/10 09:25:32;;;;;;;8.18;5.53;;;;;;;;;;5053458;28;20546;-69
2021/06/10 09:28:01;;;;;;;6.03;4.53;;;;;;;;;;5053292;28;20025;-68
2021/06/10 09:30:31;;;;;;;5.75;4.38;;;;;;;;;;5053544;28;20036;-69
2021/06/10 09:32:57;;;;;;;6.15;4.82;;;;;;;;;;5018899;28;20381;-68
2021/06/10 09:35:26;;;;;;;7.68;4.68;;;;;;;;;;5053164;28;20028;-70
2021/06/10 09:37:56;;;;;;;6.90;4.28;;;;;;;;;;5053412;28;20381;-68
2021/06/10 09:40:21;;;;;;;8.48;4.30;;;;;;;;;;5053130;28;20040;-69
2021/06/10 09:42:48;;;;;;;8.80;4.07;;;;;;;;;;5057417;28;20069;-69
2021/06/10 09:45:18;;;;;;;6.13;4.07;;;;;;;;;;5071659;28;20036;-70
2021/06/10 09:47:46;;;;;;;5.45;3.88;;;;;;;;;;5072596;28;20036;-72
2021/06/10 09:50:18;;;;;;;5.45;4.40;;;;;;;;;;5061197;28;20036;-70
2021/06/10 09:52:48;;;;;;;11.63;4.57;;;;;;;;;;5055649;28;20017;-71
2021/06/10 09:55:32;;;;;;;9.30;4.80;;;;;;;;;;5055505;28;20052;-70
2021/06/10 09:58:20;;;;;;;7.25;3.60;;;;;;;;;;5041454;28;20049;-69
2021/06/10 10:00:50;;;;;;;5.68;3.85;;;;;;;;;;5051850;28;20037;-71
2021/06/10 10:03:29;;;;;;;5.88;3.83;;;;;;;;;;5053118;28;20063;-71
2021/06/10 10:05:57;;;;;;;7.68;3.95;;;;;;;;;;5051883;28;20024;-71
2021/06/10 10:08:23;;;;;;;7.15;3.63;;;;;;;;;;5028549;28;20021;-71
2021/06/10 10:10:48;;;;;;;4.95;3.42;;;;;;;;;;5044086;28;20036;-68
2021/06/10 10:13:16;;;;;;;9.93;3.97;;;;;;;;;;5043250;28;20018;-70
2021/06/10 10:15:43;;;;;;;6.07;3.50;;;;;;;;;;5036601;28;20637;-69
2021/06/10 10:18:09;;;;;;;7.07;3.65;;;;;;;;;;5037752;28;21208;-69
2021/06/10 10:20:35;;;;;;;6.88;3.63;;;;;;;;;;5052291;28;20099;-68
2021/06/10 10:23:01;;;;;;;4.53;3.88;;;;;;;;;;5036513;28;20442;-70
2021/06/10 10:25:26;;;;;;;5.35;3.80;;;;;;;;;;5041130;28;20053;-70
2021/06/10 10:27:51;;;;;;;5.03;3.78;;;;;;;;;;5043293;28;20032;-69
2021/06/10 10:30:20;;;;;;;6.32;3.55;;;;;;;;;;5032781;28;20095;-69
2021/06/10 10:32:58;;;;;;;5.88;3.53;;;;;;;;;;5043648;28;20109;-69
2021/06/10 10:35:33;;;;;;;5.82;3.78;;;;;;;;;;5030324;28;20028;-70
2021/06/10 10:38:08;;;;;;;5.88;3.55;;;;;;;;;;5045122;28;20013;-69
2021/06/10 10:40:40;;;;;;;4.90;3.15;;;;;;;;;;5030796;28;20029;-69
2021/06/10 10:43:10;;;;;;;5.72;3.47;;;;;;;;;;5045033;28;20075;-71
2021/06/10 10:45:36;;;;;;;4.20;3.50;;;;;;;;;;5027630;28;20021;-72
2021/06/10 10:48:04;;;;;;;4.03;3.17;;;;;;;;;;5048092;28;20017;-71
2021/06/10 10:50:35;;;;;;;4.13;3.78;;;;;;;;;;5050421;28;20037;-69
2021/06/10 10:53:00;;;;;;;4.47;3.60;;;;;;;;;;5028979;28;20024;-70
2021/06/10 10:55:30;;;;;;;5.25;3.20;;;;;;;;;;5051981;28;20704;-71
2021/06/10 10:58:00;;;;;;;3.97;3.33;;;;;;;;;;5028928;28;20120;-68
2021/06/10 11:00:45;;;;;;;6.00;3.72;;;;;;;;;;5049796;28;20025;-71
2021/06/10 11:03:17;;;;;;;5.57;3.63;;;;;;;;;;5050251;28;20500;-69
2021/06/10 11:05:43;;;;;;;4.43;3.70;;;;;;;;;;5049614;28;20579;-70
2021/06/10 11:08:09;;;;;;;5.95;3.80;;;;;;;;;;5051354;28;20466;-71
2021/06/10 11:10:50;;;;;;;3.90;3.58;;;;;;;;;;5051494;28;20021;-72
2021/06/10 11:13:22;;;;;;;5.88;3.70;;;;;;;;;;5049301;28;20103;-71
2021/06/10 11:15:49;;;;;;;16.98;3.20;;;;;;;;;;5051640;28;20040;-71
2021/06/10 11:18:35;;;;;;;4.10;2.88;;;;;;;;;;5051040;28;20063;-72
2021/06/10 11:21:04;;;;;;;6.80;3.70;;;;;;;;;;5023466;28;20410;-72
2021/06/10 11:23:29;;;;;;;3.72;3.42;;;;;;;;;;5044380;28;20017;-71
2021/06/10 11:25:57;;;;;;;3.97;3.08;;;;;;;;;;5038711;28;20036;-70
2021/06/10 11:28:23;;;;;;;;;;;;;;;;;;5034661;28;20079;-71
2021/06/10 11:30:50;;;;;;;6.33;3.80;;;;;;;;;;5032049;28;19913;-70
2021/06/10 11:33:22;;;;;;;9.55;3.60;;;;;;;;;;5009030;28;20018;-70
2021/06/10 11:35:48;;;;;;;12.23;3.55;;;;;;;;;;5036110;28;20474;-70
2021/06/10 11:38:16;;;;;;;6.05;3.30;;;;;;;;;;5031904;28;20025;-70
2021/06/10 11:40:43;;;;;;;6.25;3.45;;;;;;;;;;5031437;28;20052;-70
2021/06/10 11:43:10;;;;;;;4.07;3.50;;;;;;;;;;5030992;28;20028;-70
2021/06/10 11:45:36;;;;;;;6.65;4.15;;;;;;;;;;5031756;28;20045;-70
2021/06/10 11:48:02;;;;;;;5.85;3.10;;;;;;;;;;5012951;28;20017;-71
2021/06/10 11:50:29;;;;;;;4.82;3.60;;;;;;;;;;5031371;28;20037;-72
2021/06/10 11:52:56;;;;;;;6.15;3.63;;;;;;;;;;5033225;28;20018;-68
2021/06/10 11:55:22;;;;;;;5.80;3.92;;;;;;;;;;5047076;28;20034;-68
2021/06/10 11:57:55;;;;;;;8.48;3.50;;;;;;;;;;5039467;28;20010;-72
2021/06/10 12:00:42;;;;;;;5.97;3.38;;;;;;;;;;5031065;28;20022;-71
2021/06/10 12:03:12;;;;;;;4.45;3.55;;;;;;;;;;5030916;28;20537;-71
2021/06/10 12:05:55;;;;;;;3.72;3.03;;;;;;;;;;5010519;28;20389;-72
2021/06/10 12:08:22;;;;;;;10.90;3.55;;;;;;;;;;5039918;28;20036;-71
2021/06/10 12:10:48;;;;;;;3.50;3.20;;;;;;;;;;5025328;28;20037;-73
2021/06/10 12:13:14;;;;;;;6.85;3.40;;;;;;;;;;5041938;28;20014;-71
2021/06/10 12:15:41;;;;;;;3.72;3.38;;;;;;;;;;5033031;28;20032;-72
2021/06/10 12:18:08;;;;;;;6.18;3.10;;;;;;;;;;5050374;28;20478;-69
2021/06/10 12:20:34;;;;;;;4.25;3.33;;;;;;;;;;5050636;28;20047;-71
2021/06/10 12:23:01;;;;;;;5.72;3.90;;;;;;;;;;5049834;28;20021;-70
2021/06/10 12:25:28;;;;;;;4.95;3.63;;;;;;;;;;5050665;28;20017;-70
2021/06/10 12:27:55;;;;;;;8.75;4.13;;;;;;;;;;5051147;28;20509;-70
2021/06/10 12:30:22;;;;;;;4.10;3.13;;;;;;;;;;5052087;28;20123;-68
2021/06/10 12:32:48;;;;;;;7.27;3.50;;;;;;;;;;5050351;28;20013;-68
2021/06/10 12:35:14;;;;;;;8.00;4.10;;;;;;;;;;5031206;28;20405;-71
2021/06/10 12:37:39;;;;;;;7.15;3.50;;;;;;;;;;5050561;28;20110;-71
2021/06/10 12:40:05;;;;;;;4.55;3.80;;;;;;;;;;5049991;28;20025;-70
2021/06/10 12:42:30;;;;;;;3.83;3.22;;;;;;;;;;5032157;28;20430;-72
2021/06/10 12:44:56;;;;;;;6.60;3.95;;;;;;;;;;5046776;28;20393;-71
2021/06/10 12:47:32;;;;;;;8.18;3.85;;;;;;;;;;5049004;28;20034;-71
2021/06/10 12:49:57;;;;;;;4.32;3.92;;;;;;;;;;5034195;28;20079;-69
2021/06/10 12:52:27;;;;;;;5.35;4.00;;;;;;;;;;5052758;28;20013;-70
2021/06/10 12:54:59;;;;;;;9.52;4.30;;;;;;;;;;5030823;28;20544;-71
2021/06/10 12:57:27;;;;;;;5.75;4.53;;;;;;;;;;5044960;28;20064;-72
2021/06/10 13:00:00;;;;;;;4.97;4.38;;;;;;;;;;5025126;28;20120;-73
2021/06/10 13:02:27;;;;;;;7.50;4.13;;;;;;;;;;5043552;28;20100;-72
2021/06/10 13:05:04;;;;;;;6.40;4.78;;;;;;;;;;5047148;28;20029;-72
2021/06/10 13:07:33;;;;;;;5.18;4.40;;;;;;;;;;5043850;28;20040;-69
2021/06/10 13:10:00;;;;;;;5.13;4.20;;;;;;;;;;5019164;28;20484;-70
2021/06/10 13:12:27;;;;;;;4.50;4.10;;;;;;;;;;5010299;28;20030;-71
2021/06/10 13:15:11;;;;;;;5.05;4.20;;;;;;;;;;5032070;28;20017;-71
2021/06/10 13:17:57;;;;;;;9.35;5.05;;;;;;;;;;5035378;28;20014;-74
2021/06/10 13:20:41;;;;;;;6.85;4.85;;;;;;;;;;5054825;28;20025;-70
2021/06/10 13:23:06;;;;;;;5.20;4.68;;;;;;;;;;5053735;28;20017;-70
2021/06/10 13:25:32;;;;;;;6.82;4.47;;;;;;;;;;5054228;28;20120;-70
2021/06/10 13:28:05;;;;;;;5.60;4.72;;;;;;;;;;5050710;28;20001;-71
2021/06/10 13:30:30;;;;;;;5.35;4.40;;;;;;;;;;5063922;28;20020;-68
2021/06/10 13:32:56;;;;;;;5.13;4.40;;;;;;;;;;5068873;28;20013;-70
2021/06/10 13:35:25;;;;;;;6.32;3.67;;;;;;;;;;5068059;28;20009;-69
2021/06/10 13:37:50;;;;;;;6.25;3.63;;;;;;;;;;5050751;28;20051;-68
2021/06/10 13:40:16;;;;;;;9.73;3.97;;;;;;;;;;5053580;28;20064;-69
2021/06/10 13:42:49;;;;;;;4.20;3.75;;;;;;;;;;5053482;28;20021;-69
2021/06/10 13:45:15;;;;;;;4.45;3.47;;;;;;;;;;5049647;28;20024;-69
2021/06/10 13:47:40;;;;;;;5.75;3.78;;;;;;;;;;5073218;28;20100;-69
2021/06/10 13:50:06;;;;;;;9.48;4.00;;;;;;;;;;5073407;28;20032;-69
2021/06/10 13:52:31;;;;;;;5.15;3.60;;;;;;;;;;5073215;28;20108;-68
2021/06/10 13:54:57;;;;;;;4.10;3.60;;;;;;;;;;5041437;28;20025;-69
2021/06/10 13:57:22;;;;;;;6.30;3.35;;;;;;;;;;5039155;28;20025;-68
2021/06/10 13:59:47;;;;;;;7.55;3.60;;;;;;;;;;5049983;28;20104;-68
2021/06/10 14:02:13;;;;;;;6.20;3.80;;;;;;;;;;5038551;28;20049;-68
2021/06/10 14:04:38;;;;;;;4.40;4.00;;;;;;;;;;5043518;28;20484;-70
2021/06/10 14:07:04;;;;;;;5.38;3.67;;;;;;;;;;5036664;28;20032;-68
2021/06/10 14:09:29;;;;;;;3.63;3.22;;;;;;;;;;5029379;28;20104;-68
2021/06/10 14:11:55;;;;;;;6.20;3.38;;;;;;;;;;5046490;28;20029;-69
2021/06/10 14:14:20;;;;;;;6.78;3.50;;;;;;;;;;5045951;28;20021;-70
2021/06/10 14:16:46;;;;;;;4.60;3.83;;;;;;;;;;5051153;28;20086;-70
2021/06/10 14:19:15;;;;;;;7.18;3.63;;;;;;;;;;5048148;28;20028;-69
2021/06/10 14:21:41;;;;;;;3.80;3.42;;;;;;;;;;5031297;28;20032;-68
2021/06/10 14:24:06;;;;;;;6.40;3.65;;;;;;;;;;5052084;28;20021;-67
2021/06/10 14:26:32;;;;;;;4.15;3.65;;;;;;;;;;5052054;28;20025;-67
2021/06/10 14:34:25;;;;;;;7.47;4.03;;;;;;;;;;5073248;28;20031;-67
2021/06/10 14:36:50;;;;;;;156.95;38.97;;;;;;;;;;5072988;28;20031;-66
2021/06/10 14:39:15;;;;;;;21.35;8.05;;;;;;;;;;5073208;28;20052;-67
2021/06/10 14:41:41;;;;;;;7.60;4.68;;;;;;;;;;5054273;28;20111;-66
2021/06/10 14:44:07;;;;;;;64.70;21.88;;;;;;;;;;5072774;28;20021;-67
2021/06/10 14:46:33;;;;;;;11.13;5.60;;;;;;;;;;5073460;28;20107;-67
2021/06/10 14:49:00;;;;;;;8.57;5.18;;;;;;;;;;5072546;28;20163;-68
2021/06/10 14:51:26;;;;;;;44.97;8.93;;;;;;;;;;5072892;28;20047;-69